createdAt,value
2019-05-05T00:02:49.237Z,2.00
2019-05-05T00:05:44.906Z,2.00
2019-05-05T00:08:16.707Z,2.00
2019-05-05T00:11:05.704Z,2.00
2019-05-05T00:13:55.235Z,1.90
2019-05-05T00:16:44.568Z,1.90
2019-05-05T00:19:29.474Z,1.90
2019-05-05T00:21:48.395Z,1.80
2019-05-05T00:24:20.400Z,1.70
2019-05-05T00:26:50.875Z,1.60
2019-05-05T00:29:22.511Z,1.60
2019-05-05T00:31:54.689Z,1.50
2019-05-05T00:34:25.611Z,1.50
2019-05-05T00:36:56.507Z,1.50
2019-05-05T00:39:29.878Z,1.50
2019-05-05T00:42:00.798Z,1.50
2019-05-05T00:44:31.407Z,1.50
2019-05-05T00:47:29.023Z,1.40
2019-05-05T00:49:59.948Z,1.40
2019-05-05T00:52:30.863Z,1.40
2019-05-05T00:55:01.727Z,1.40
2019-05-05T00:57:32.219Z,1.40
2019-05-05T01:00:05.012Z,1.30
2019-05-05T01:02:42.415Z,1.30
2019-05-05T01:05:28.787Z,1.20
2019-05-05T01:08:00.126Z,1.20
2019-05-05T01:10:30.842Z,1.20
2019-05-05T01:13:01.311Z,1.20
2019-05-05T01:15:31.799Z,1.20
2019-05-05T01:18:04.582Z,1.10
2019-05-05T01:20:34.963Z,1.10
2019-05-05T01:23:05.768Z,1.10
2019-05-05T01:25:36.288Z,1.10
2019-05-05T01:28:08.206Z,1.10
2019-05-05T01:30:44.406Z,1.00
2019-05-05T01:33:27.321Z,1.00
2019-05-05T01:35:58.588Z,1.00
2019-05-05T01:38:44.556Z,1.00
2019-05-05T01:41:21.952Z,1.00
2019-05-05T01:43:54.200Z,1.00
2019-05-05T01:46:24.704Z,1.00
2019-05-05T01:48:55.191Z,1.00
2019-05-05T01:51:27.304Z,1.00
2019-05-05T01:53:58.121Z,1.00
2019-05-05T01:56:29.325Z,1.00
2019-05-05T01:59:00.038Z,1.00
2019-05-05T02:01:30.636Z,1.10
2019-05-05T02:04:01.206Z,1.10
2019-05-05T02:06:31.726Z,1.10
2019-05-05T02:09:05.226Z,1.10
2019-05-05T02:11:35.370Z,1.00
2019-05-05T02:14:06.224Z,1.10
2019-05-05T02:16:37.187Z,1.00
2019-05-05T02:19:07.670Z,1.00
2019-05-05T02:21:38.171Z,1.00
2019-05-05T02:24:09.340Z,1.00
2019-05-05T02:26:40.123Z,1.00
2019-05-05T02:29:19.040Z,1.00
2019-05-05T02:32:08.393Z,1.00
2019-05-05T02:34:45.682Z,1.00
2019-05-05T02:37:16.269Z,1.00
2019-05-05T02:39:57.913Z,0.90
2019-05-05T02:42:20.391Z,0.90
2019-05-05T02:44:51.252Z,0.80
2019-05-05T02:47:34.660Z,0.80
2019-05-05T02:50:07.680Z,0.80
2019-05-05T02:52:39.862Z,0.80
2019-05-05T02:55:11.959Z,0.70
2019-05-05T02:57:43.919Z,0.70
2019-05-05T03:00:40.387Z,0.70
2019-05-05T03:03:13.390Z,0.70
2019-05-05T03:05:43.562Z,0.70
2019-05-05T03:08:15.034Z,0.70
2019-05-05T03:10:45.734Z,0.70
2019-05-05T03:13:17.495Z,0.70
2019-05-05T03:15:54.986Z,0.60
2019-05-05T03:18:25.999Z,0.60
2019-05-05T03:21:04.563Z,0.60
2019-05-05T03:23:28.890Z,0.60
2019-05-05T03:25:59.375Z,0.60
2019-05-05T03:28:40.700Z,0.60
2019-05-05T03:31:15.543Z,0.60
2019-05-05T03:33:45.962Z,0.60
2019-05-05T03:36:17.162Z,0.60
2019-05-05T03:38:47.847Z,0.60
2019-05-05T03:41:37.295Z,0.60
2019-05-05T03:44:14.016Z,0.70
2019-05-05T03:46:44.002Z,0.70
2019-05-05T03:49:14.595Z,0.70
2019-05-05T03:51:45.572Z,0.70
2019-05-05T03:54:16.372Z,0.80
2019-05-05T03:56:47.156Z,0.80
2019-05-05T03:59:17.845Z,0.80
2019-05-05T04:02:14.165Z,0.80
2019-05-05T04:04:48.048Z,0.90
2019-05-05T04:07:18.758Z,0.90
2019-05-05T04:09:49.243Z,1.00
2019-05-05T04:12:20.226Z,1.00
2019-05-05T04:14:52.135Z,1.00
2019-05-05T04:17:41.546Z,1.10
2019-05-05T04:20:30.454Z,1.10
2019-05-05T04:23:00.975Z,1.20
2019-05-05T04:25:31.464Z,1.30
2019-05-05T04:28:04.240Z,1.40
2019-05-05T04:30:34.076Z,1.50
2019-05-05T04:33:05.900Z,1.70
2019-05-05T04:35:36.571Z,1.80
2019-05-05T04:38:08.055Z,2.00
2019-05-05T04:40:38.655Z,2.20
2019-05-05T04:43:09.820Z,2.40
2019-05-05T04:45:40.306Z,2.70
2019-05-05T04:48:19.033Z,2.80
2019-05-05T04:50:58.344Z,3.00
2019-05-05T04:53:37.818Z,3.20
2019-05-05T04:56:08.315Z,3.30
2019-05-05T04:58:38.780Z,3.50
2019-05-05T05:01:09.298Z,3.70
2019-05-05T05:03:54.596Z,3.90
2019-05-05T05:06:30.290Z,4.00
2019-05-05T05:09:00.774Z,4.10
2019-05-05T05:11:31.266Z,4.20
2019-05-05T05:14:03.736Z,4.30
2019-05-05T05:16:35.695Z,4.50
2019-05-05T05:19:05.947Z,4.60
2019-05-05T05:21:36.454Z,4.70
2019-05-05T05:24:07.530Z,4.90
2019-05-05T05:26:37.925Z,5.00
2019-05-05T05:29:08.427Z,5.20
2019-05-05T05:31:44.134Z,5.40
2019-05-05T05:34:14.864Z,5.70
2019-05-05T05:36:45.436Z,6.00
2019-05-05T05:39:33.671Z,6.30
2019-05-05T05:42:04.637Z,6.50
2019-05-05T05:44:54.145Z,6.70
2019-05-05T05:47:46.658Z,7.00
2019-05-05T05:50:27.141Z,7.40
2019-05-05T05:52:59.819Z,7.80
2019-05-05T05:55:30.315Z,8.20
2019-05-05T05:58:00.779Z,8.70
2019-05-05T06:00:31.271Z,9.20
2019-05-05T06:03:03.728Z,9.60
2019-05-05T06:05:34.540Z,10.00
2019-05-05T06:08:04.999Z,10.50
2019-05-05T06:10:35.511Z,10.80
2019-05-05T06:13:05.992Z,11.20
2019-05-05T06:15:37.075Z,11.80
2019-05-05T06:18:07.543Z,12.50
2019-05-05T06:20:38.064Z,13.20
2019-05-05T06:23:08.526Z,13.70
2019-05-05T06:25:39.018Z,14.30
2019-05-05T06:28:09.908Z,14.80
2019-05-05T06:30:40.419Z,15.20
2019-05-05T06:33:10.907Z,15.40
2019-05-05T06:35:41.820Z,15.60
2019-05-05T06:38:13.632Z,15.80
2019-05-05T06:41:01.808Z,16.00
2019-05-05T06:43:41.542Z,16.10
2019-05-05T06:46:14.621Z,16.10
2019-05-05T06:48:46.530Z,16.20
2019-05-05T06:51:17.028Z,16.20
2019-05-05T06:53:47.499Z,16.40
2019-05-05T06:56:17.954Z,16.50
2019-05-05T06:58:48.497Z,16.90
2019-05-05T07:01:18.957Z,17.40
2019-05-05T07:03:49.451Z,17.90
2019-05-05T07:06:24.043Z,18.30
2019-05-05T07:08:54.714Z,18.60
2019-05-05T07:11:25.393Z,18.80
2019-05-05T07:13:55.858Z,19.30
2019-05-05T07:16:26.262Z,19.80
2019-05-05T07:18:56.665Z,20.50
2019-05-05T07:21:27.170Z,20.80
2019-05-05T07:23:58.277Z,21.30
2019-05-05T07:26:28.690Z,22.00
2019-05-05T07:28:59.182Z,23.00
2019-05-05T07:31:29.588Z,23.40
2019-05-05T07:34:00.075Z,24.10
2019-05-05T07:36:44.469Z,24.60
2019-05-05T07:39:15.290Z,25.00
2019-05-05T07:41:45.793Z,25.20
2019-05-05T07:44:25.836Z,25.00
2019-05-05T07:46:48.406Z,24.60
2019-05-05T07:49:18.870Z,23.70
2019-05-05T07:51:49.443Z,23.10
2019-05-05T07:54:19.958Z,23.10
2019-05-05T07:56:50.451Z,23.30
2019-05-05T07:59:20.943Z,23.70
2019-05-05T08:01:54.797Z,24.00
2019-05-05T08:04:25.070Z,24.00
2019-05-05T08:06:55.560Z,23.90
2019-05-05T08:09:26.263Z,23.90
2019-05-05T08:11:56.674Z,24.10
2019-05-05T08:14:27.095Z,23.60
2019-05-05T08:17:28.922Z,23.20
2019-05-05T08:20:07.306Z,22.40
2019-05-05T08:22:37.807Z,22.30
2019-05-05T08:25:16.779Z,22.50
2019-05-05T08:28:09.311Z,22.00
2019-05-05T08:30:50.861Z,21.70
2019-05-05T08:33:21.359Z,21.40
2019-05-05T08:35:54.141Z,21.70
2019-05-05T08:38:25.202Z,22.40
2019-05-05T08:40:55.682Z,22.80
2019-05-05T08:43:26.208Z,23.00
2019-05-05T08:45:56.664Z,23.30
2019-05-05T08:48:28.516Z,24.10
2019-05-05T08:50:58.938Z,25.00
2019-05-05T08:53:41.473Z,25.50
2019-05-05T08:56:01.459Z,25.50
2019-05-05T08:58:34.257Z,25.00
2019-05-05T09:01:04.502Z,24.80
2019-05-05T09:03:35.041Z,24.50
2019-05-05T09:06:05.529Z,23.80
2019-05-05T09:08:35.967Z,22.70
2019-05-05T09:11:06.487Z,22.20
2019-05-05T09:13:37.022Z,21.70
2019-05-05T09:16:07.532Z,21.60
2019-05-05T09:18:57.810Z,21.30
2019-05-05T09:21:28.623Z,21.20
2019-05-05T09:24:03.269Z,21.00
2019-05-05T09:26:44.455Z,20.70
2019-05-05T09:29:34.761Z,20.30
2019-05-05T09:32:05.343Z,19.60
2019-05-05T09:34:35.865Z,18.80
2019-05-05T09:37:06.441Z,18.30
2019-05-05T09:39:37.661Z,17.90
2019-05-05T09:42:08.168Z,17.50
2019-05-05T09:44:38.678Z,17.50
2019-05-05T09:47:09.474Z,17.50
2019-05-05T09:49:39.995Z,17.30
2019-05-05T09:52:10.920Z,17.40
2019-05-05T09:54:41.361Z,18.00
2019-05-05T09:57:11.855Z,18.50
2019-05-05T09:59:45.275Z,18.70
2019-05-05T10:02:15.806Z,18.70
2019-05-05T10:04:46.314Z,18.70
2019-05-05T10:07:16.812Z,18.70
2019-05-05T10:09:47.295Z,18.20
2019-05-05T10:12:18.403Z,18.10
2019-05-05T10:14:48.866Z,18.40
2019-05-05T10:17:20.069Z,18.60
2019-05-05T10:19:50.600Z,18.60
2019-05-05T10:22:21.087Z,18.30
2019-05-05T10:24:57.551Z,17.70
2019-05-05T10:27:41.524Z,17.30
2019-05-05T10:30:00.696Z,17.00
2019-05-05T10:32:31.203Z,16.90
2019-05-05T10:35:04.561Z,16.50
2019-05-05T10:37:35.715Z,16.20
2019-05-05T10:40:08.087Z,16.20
2019-05-05T10:43:04.408Z,16.30
2019-05-05T10:45:35.362Z,16.40
2019-05-05T10:48:05.895Z,16.60
2019-05-05T10:50:36.465Z,16.70
2019-05-05T10:53:06.954Z,16.80
2019-05-05T10:55:37.419Z,16.80
2019-05-05T10:58:08.287Z,16.70
2019-05-05T11:00:47.658Z,16.60
2019-05-05T11:03:18.160Z,16.60
2019-05-05T11:05:48.643Z,16.80
2019-05-05T11:08:24.013Z,16.90
2019-05-05T11:10:54.715Z,17.00
2019-05-05T11:13:25.139Z,16.80
2019-05-05T11:15:55.754Z,16.80
2019-05-05T11:18:26.674Z,16.90
2019-05-05T11:20:58.035Z,16.80
2019-05-05T11:23:28.823Z,16.80
2019-05-05T11:25:59.606Z,16.80
2019-05-05T11:28:30.488Z,16.70
2019-05-05T11:31:01.365Z,16.60
2019-05-05T11:33:47.466Z,16.40
2019-05-05T11:36:35.599Z,16.30
2019-05-05T11:39:08.250Z,16.10
2019-05-05T11:41:39.037Z,16.00
2019-05-05T11:44:09.571Z,15.90
2019-05-05T11:46:40.558Z,15.90
2019-05-05T11:49:11.043Z,15.90
2019-05-05T11:51:43.624Z,15.90
2019-05-05T11:54:17.445Z,15.90
2019-05-05T11:56:47.947Z,15.90
2019-05-05T11:59:18.752Z,15.90
2019-05-05T12:01:49.385Z,15.90
2019-05-05T12:04:19.993Z,15.70
2019-05-05T12:06:50.514Z,15.10
2019-05-05T12:09:33.751Z,14.50
2019-05-05T12:12:04.732Z,14.20
2019-05-05T12:14:35.371Z,14.10
2019-05-05T12:17:05.892Z,13.70
2019-05-05T12:19:36.460Z,13.40
2019-05-05T12:22:07.384Z,13.40
2019-05-05T12:24:44.157Z,13.40
2019-05-05T12:27:24.660Z,13.60
2019-05-05T12:30:03.799Z,13.80
2019-05-05T12:32:34.806Z,13.90
2019-05-05T12:35:05.828Z,14.10
2019-05-05T12:37:36.739Z,14.20
2019-05-05T12:40:08.286Z,14.00
2019-05-05T12:42:38.743Z,13.90
2019-05-05T12:45:13.787Z,13.80
2019-05-05T12:48:02.163Z,13.60
2019-05-05T12:50:33.837Z,13.50
2019-05-05T12:53:04.369Z,13.30
2019-05-05T12:55:41.355Z,13.10
2019-05-05T12:58:06.983Z,12.80
2019-05-05T13:00:39.038Z,12.70
2019-05-05T13:03:09.543Z,12.60
2019-05-05T13:05:40.032Z,12.60
2019-05-05T13:08:10.982Z,12.50
2019-05-05T13:10:41.470Z,12.60
2019-05-05T13:13:14.020Z,12.70
2019-05-05T13:15:44.372Z,12.70
2019-05-05T13:18:14.947Z,12.60
2019-05-05T13:21:01.529Z,12.40
2019-05-05T13:23:44.456Z,12.30
2019-05-05T13:26:20.974Z,12.50
2019-05-05T13:28:51.835Z,12.50
2019-05-05T13:31:23.575Z,12.50
2019-05-05T13:33:54.793Z,12.70
2019-05-05T13:36:25.545Z,12.90
2019-05-05T13:38:56.047Z,12.90
2019-05-05T13:41:26.609Z,12.90
2019-05-05T13:43:58.557Z,13.00
2019-05-05T13:46:30.845Z,13.30
2019-05-05T13:49:24.425Z,13.40
2019-05-05T13:51:54.958Z,13.60
2019-05-05T13:54:25.822Z,13.80
2019-05-05T13:56:56.383Z,14.00
2019-05-05T13:59:27.269Z,14.10
2019-05-05T14:01:57.749Z,14.30
2019-05-05T14:04:28.266Z,14.50
2019-05-05T14:06:59.084Z,14.60
2019-05-05T14:09:29.599Z,14.70
2019-05-05T14:12:00.074Z,14.60
2019-05-05T14:14:30.899Z,14.20
2019-05-05T14:17:04.258Z,13.80
2019-05-05T14:19:36.314Z,13.80
2019-05-05T14:22:06.829Z,13.90
2019-05-05T14:24:44.382Z,13.90
2019-05-05T14:27:14.621Z,13.90
2019-05-05T14:29:50.587Z,13.80
2019-05-05T14:32:23.872Z,14.00
2019-05-05T14:35:07.745Z,14.10
2019-05-05T14:37:41.906Z,14.30
2019-05-05T14:40:13.790Z,14.00
2019-05-05T14:42:44.306Z,13.80
2019-05-05T14:45:15.459Z,13.70
2019-05-05T14:47:45.907Z,13.60
2019-05-05T14:50:18.240Z,13.70
2019-05-05T14:52:48.668Z,13.80
2019-05-05T14:55:19.162Z,14.00
2019-05-05T14:57:49.735Z,14.30
2019-05-05T15:00:24.101Z,14.40
2019-05-05T15:02:54.739Z,14.50
2019-05-05T15:05:54.785Z,14.60
2019-05-05T15:08:44.307Z,14.70
2019-05-05T15:11:26.158Z,14.80
2019-05-05T15:13:56.665Z,15.00
2019-05-05T15:16:27.174Z,15.10
2019-05-05T15:18:57.592Z,15.10
2019-05-05T15:21:28.082Z,15.20
2019-05-05T15:23:58.589Z,15.40
2019-05-05T15:26:29.111Z,15.40
2019-05-05T15:29:01.709Z,15.30
2019-05-05T15:31:31.747Z,15.10
2019-05-05T15:34:04.166Z,14.80
2019-05-05T15:36:40.172Z,14.20
2019-05-05T15:39:10.725Z,13.50
2019-05-05T15:41:41.823Z,13.10
2019-05-05T15:44:13.420Z,12.90
2019-05-05T15:46:44.328Z,12.70
2019-05-05T15:49:14.889Z,12.70
2019-05-05T15:51:45.419Z,12.60
2019-05-05T15:54:15.858Z,12.40
2019-05-05T15:56:46.899Z,12.30
2019-05-05T15:59:17.390Z,12.30
2019-05-05T16:01:47.899Z,12.30
2019-05-05T16:04:20.187Z,12.40
2019-05-05T16:06:50.679Z,12.60
2019-05-05T16:09:21.178Z,12.60
2019-05-05T16:11:51.682Z,12.60
2019-05-05T16:14:23.828Z,12.60
2019-05-05T16:17:06.311Z,12.70
2019-05-05T16:20:13.923Z,12.80
2019-05-05T16:23:06.319Z,12.90
2019-05-05T16:25:36.822Z,12.90
2019-05-05T16:28:07.323Z,12.60
2019-05-05T16:30:37.829Z,12.40
2019-05-05T16:33:08.393Z,12.30
2019-05-05T16:35:38.911Z,12.40
2019-05-05T16:38:09.409Z,12.40
2019-05-05T16:40:40.059Z,12.40
2019-05-05T16:43:10.556Z,12.30
2019-05-05T16:45:41.084Z,12.10
2019-05-05T16:48:11.607Z,11.90
2019-05-05T16:50:44.120Z,11.80
2019-05-05T16:53:34.313Z,11.70
2019-05-05T16:56:04.894Z,11.50
2019-05-05T16:58:35.433Z,11.00
2019-05-05T17:01:08.983Z,10.80
2019-05-05T17:03:39.528Z,10.60
2019-05-05T17:06:09.999Z,10.30
2019-05-05T17:08:40.546Z,10.00
2019-05-05T17:11:11.030Z,9.80
2019-05-05T17:13:46.753Z,9.70
2019-05-05T17:16:36.534Z,9.60
2019-05-05T17:19:33.851Z,9.70
2019-05-05T17:22:10.823Z,9.70
2019-05-05T17:24:41.327Z,9.60
2019-05-05T17:27:13.814Z,9.60
2019-05-05T17:29:44.044Z,9.50
2019-05-05T17:32:14.549Z,9.50
2019-05-05T17:34:45.072Z,9.50
2019-05-05T17:37:15.634Z,9.60
2019-05-05T17:39:54.670Z,9.70
2019-05-05T17:42:47.367Z,9.80
2019-05-05T17:45:35.685Z,9.90
2019-05-05T17:48:10.185Z,9.80
2019-05-05T17:50:58.176Z,9.80
2019-05-05T17:53:36.930Z,9.90
2019-05-05T17:56:09.611Z,9.90
2019-05-05T17:58:40.559Z,10.00
2019-05-05T18:01:11.964Z,9.90
2019-05-05T18:03:43.667Z,10.00
2019-05-05T18:06:30.619Z,10.00
2019-05-05T18:09:09.579Z,10.10
2019-05-05T18:11:59.058Z,10.10
2019-05-05T18:14:29.946Z,10.10
2019-05-05T18:17:00.435Z,10.10
2019-05-05T18:19:30.938Z,10.10
2019-05-05T18:22:01.491Z,10.00
2019-05-05T18:24:33.695Z,9.90
2019-05-05T18:27:04.543Z,9.80
2019-05-05T18:29:35.179Z,9.70
2019-05-05T18:32:05.860Z,9.60
2019-05-05T18:34:36.362Z,9.40
2019-05-05T18:37:07.187Z,9.30
2019-05-05T18:39:37.686Z,9.30
2019-05-05T18:42:13.957Z,9.20
2019-05-05T18:44:46.954Z,9.30
2019-05-05T18:47:19.021Z,9.20
2019-05-05T18:49:49.530Z,9.30
2019-05-05T18:52:20.064Z,9.30
2019-05-05T18:54:50.581Z,9.40
2019-05-05T18:57:21.079Z,9.50
2019-05-05T18:59:51.568Z,9.50
2019-05-05T19:02:41.012Z,9.40
2019-05-05T19:05:30.372Z,9.40
2019-05-05T19:08:05.339Z,9.40
2019-05-05T19:10:35.931Z,9.50
2019-05-05T19:13:06.423Z,9.50
2019-05-05T19:15:36.934Z,9.50
2019-05-05T19:18:07.442Z,9.50
2019-05-05T19:20:50.318Z,9.60
2019-05-05T19:23:20.840Z,9.60
2019-05-05T19:25:55.870Z,9.60
2019-05-05T19:28:26.719Z,9.60
2019-05-05T19:30:59.483Z,9.60
2019-05-05T19:33:29.955Z,9.50
2019-05-05T19:36:01.584Z,9.50
2019-05-05T19:38:34.372Z,9.40
2019-05-05T19:41:04.220Z,9.40
2019-05-05T19:43:36.835Z,9.30
2019-05-05T19:46:09.363Z,9.30
2019-05-05T19:48:39.822Z,9.20
2019-05-05T19:51:14.159Z,9.20
2019-05-05T19:53:44.851Z,9.00
2019-05-05T19:56:15.223Z,8.90
2019-05-05T19:58:58.183Z,8.80
2019-05-05T20:01:17.812Z,8.80
2019-05-05T20:03:48.378Z,8.80
2019-05-05T20:06:18.953Z,8.80
2019-05-05T20:08:49.410Z,8.80
2019-05-05T20:11:19.915Z,8.80
2019-05-05T20:14:03.968Z,8.80
2019-05-05T20:16:54.657Z,8.80
2019-05-05T20:19:25.270Z,8.80
2019-05-05T20:21:56.671Z,8.70
2019-05-05T20:24:27.167Z,8.60
2019-05-05T20:26:58.269Z,8.50
2019-05-05T20:29:28.684Z,8.40
2019-05-05T20:31:59.166Z,8.30
2019-05-05T20:34:57.634Z,8.20
2019-05-05T20:37:37.143Z,8.10
2019-05-05T20:40:08.931Z,8.00
2019-05-05T20:42:39.403Z,7.90
2019-05-05T20:45:11.629Z,7.90
2019-05-05T20:47:43.968Z,7.80
2019-05-05T20:50:14.467Z,7.70
2019-05-05T20:52:44.972Z,7.70
2019-05-05T20:55:15.439Z,7.60
2019-05-05T20:57:46.038Z,7.50
2019-05-05T21:00:17.706Z,7.50
2019-05-05T21:02:48.256Z,7.50
2019-05-05T21:05:18.639Z,7.50
2019-05-05T21:07:49.098Z,7.50
2019-05-05T21:10:19.592Z,7.40
2019-05-05T21:12:50.059Z,7.30
2019-05-05T21:15:20.628Z,7.30
2019-05-05T21:17:51.099Z,7.20
2019-05-05T21:20:21.562Z,7.10
2019-05-05T21:23:00.268Z,7.10
2019-05-05T21:25:36.094Z,7.10
2019-05-05T21:28:06.956Z,7.00
2019-05-05T21:30:37.475Z,7.00
2019-05-05T21:33:07.973Z,7.00
2019-05-05T21:35:38.472Z,6.90
2019-05-05T21:38:09.275Z,6.90
2019-05-05T21:40:40.190Z,6.90
2019-05-05T21:43:10.648Z,6.70
2019-05-05T21:45:41.298Z,6.60
2019-05-05T21:48:13.644Z,6.60
2019-05-05T21:50:50.250Z,6.60
2019-05-05T21:53:27.239Z,6.60
2019-05-05T21:56:25.779Z,6.60
2019-05-05T21:58:57.724Z,6.50
2019-05-05T22:01:30.826Z,6.50
2019-05-05T22:04:03.491Z,6.40
2019-05-05T22:06:33.716Z,6.40
2019-05-05T22:09:06.922Z,6.40
2019-05-05T22:11:37.451Z,6.30
2019-05-05T22:14:09.495Z,6.20
2019-05-05T22:16:39.959Z,6.20
2019-05-05T22:19:10.499Z,6.20
2019-05-05T22:21:45.476Z,6.20
2019-05-05T22:24:17.298Z,6.20
2019-05-05T22:26:47.678Z,6.30
2019-05-05T22:29:18.171Z,6.30
2019-05-05T22:31:48.872Z,6.30
2019-05-05T22:34:19.378Z,6.40
2019-05-05T22:36:49.845Z,6.40
2019-05-05T22:39:20.366Z,6.40
2019-05-05T22:41:50.826Z,6.40
2019-05-05T22:44:21.303Z,6.40
2019-05-05T22:46:53.673Z,6.40
2019-05-05T22:49:24.278Z,6.40
2019-05-05T22:51:58.107Z,6.40
2019-05-05T22:54:28.574Z,6.40
2019-05-05T22:56:59.079Z,6.40
2019-05-05T22:59:29.549Z,6.30
2019-05-05T23:02:00.107Z,6.30
2019-05-05T23:04:47.309Z,6.30
2019-05-05T23:07:24.091Z,6.20
2019-05-05T23:09:54.723Z,6.20
2019-05-05T23:12:25.215Z,6.10
2019-05-05T23:14:55.952Z,6.00
2019-05-05T23:17:51.351Z,6.00
2019-05-05T23:21:21.007Z,6.00
2019-05-05T23:24:10.428Z,6.00
2019-05-05T23:26:43.633Z,6.00
2019-05-05T23:29:13.838Z,6.00
2019-05-05T23:31:44.585Z,6.00
2019-05-05T23:34:16.518Z,6.00
2019-05-05T23:36:46.992Z,6.00
2019-05-05T23:39:17.484Z,6.00
2019-05-05T23:41:47.978Z,6.00
2019-05-05T23:44:18.386Z,6.00
2019-05-05T23:46:48.851Z,6.00
2019-05-05T23:49:19.348Z,6.10
2019-05-05T23:51:49.847Z,6.00
2019-05-05T23:54:20.311Z,6.10
2019-05-05T23:56:50.803Z,6.10
2019-05-05T23:59:21.279Z,6.00
